createdAt,value
2023-02-12T00:00:03.952Z,7.00
2023-02-12T00:02:30.606Z,6.15
2023-02-12T00:04:57.047Z,6.85
2023-02-12T00:07:23.512Z,6.27
2023-02-12T00:09:49.900Z,6.45
2023-02-12T00:12:16.855Z,5.90
2023-02-12T00:14:43.276Z,6.13
2023-02-12T00:17:09.673Z,6.03
2023-02-12T00:19:36.162Z,5.83
2023-02-12T00:22:02.583Z,6.57
2023-02-12T00:24:29.224Z,6.03
2023-02-12T00:26:55.887Z,6.72
2023-02-12T00:29:22.381Z,7.03
2023-02-12T00:31:48.899Z,6.57
2023-02-12T00:34:15.790Z,7.63
2023-02-12T00:36:42.302Z,6.95
2023-02-12T00:39:10.785Z,6.15
2023-02-12T00:41:37.278Z,8.20
2023-02-12T00:44:03.896Z,7.10
2023-02-12T00:46:30.345Z,7.80
2023-02-12T00:48:56.837Z,7.40
2023-02-12T00:51:23.556Z,6.88
2023-02-12T00:53:49.926Z,6.97
2023-02-12T00:56:16.669Z,6.93
2023-02-12T00:58:43.363Z,7.63
2023-02-12T01:01:09.860Z,7.00
2023-02-12T01:03:36.434Z,7.78
2023-02-12T01:06:03.038Z,7.13
2023-02-12T01:08:30.140Z,7.20
2023-02-12T01:10:59.803Z,7.03
2023-02-12T01:13:27.107Z,6.57
2023-02-12T01:16:08.028Z,6.53
2023-02-12T01:18:36.521Z,7.15
2023-02-12T01:21:09.917Z,6.87
2023-02-12T01:23:36.340Z,7.00
2023-02-12T01:26:02.805Z,7.43
2023-02-12T01:28:29.241Z,6.80
2023-02-12T01:30:55.827Z,7.22
2023-02-12T01:33:22.363Z,8.13
2023-02-12T01:35:48.888Z,6.93
2023-02-12T01:38:15.326Z,6.90
2023-02-12T01:40:41.797Z,6.68
2023-02-12T01:43:12.600Z,7.55
2023-02-12T01:45:53.552Z,7.30
2023-02-12T01:48:23.828Z,7.25
2023-02-12T01:50:51.542Z,7.68
2023-02-12T01:53:20.609Z,7.07
2023-02-12T01:55:48.939Z,7.63
2023-02-12T01:58:16.762Z,6.77
2023-02-12T02:00:43.496Z,6.80
2023-02-12T02:03:10.066Z,7.60
2023-02-12T02:05:59.292Z,6.95
2023-02-12T02:08:25.857Z,7.60
2023-02-12T02:10:52.452Z,6.73
2023-02-12T02:13:37.928Z,7.30
2023-02-12T02:16:23.073Z,6.50
2023-02-12T02:18:58.630Z,8.05
2023-02-12T02:21:33.989Z,7.38
2023-02-12T02:24:40.923Z,7.80
2023-02-12T02:27:36.264Z,7.90
2023-02-12T02:30:19.371Z,7.60
2023-02-12T02:33:04.154Z,7.20
2023-02-12T02:35:57.660Z,7.43
2023-02-12T02:38:33.392Z,6.43
2023-02-12T02:41:09.535Z,7.38
2023-02-12T02:43:42.747Z,8.05
2023-02-12T02:46:20.610Z,7.82
2023-02-12T02:48:52.084Z,6.68
2023-02-12T02:51:23.752Z,7.43
2023-02-12T02:54:11.491Z,7.05
2023-02-12T02:56:41.489Z,8.27
2023-02-12T02:59:14.695Z,8.15
2023-02-12T03:01:50.939Z,7.55
2023-02-12T03:04:26.411Z,8.43
2023-02-12T03:07:03.571Z,7.55
2023-02-12T03:09:38.681Z,8.55
2023-02-12T03:12:12.067Z,8.98
2023-02-12T03:14:42.815Z,9.05
2023-02-12T03:17:16.615Z,7.63
2023-02-12T03:19:48.414Z,7.57
2023-02-12T03:22:21.245Z,7.40
2023-02-12T03:24:58.787Z,7.50
2023-02-12T03:27:37.565Z,7.03
2023-02-12T03:30:06.238Z,8.23
2023-02-12T03:32:50.773Z,7.90
2023-02-12T03:35:25.433Z,8.32
2023-02-12T03:38:26.354Z,8.13
2023-02-12T03:41:22.152Z,7.65
2023-02-12T03:44:02.274Z,6.63
2023-02-12T03:46:37.908Z,7.55
2023-02-12T03:49:15.176Z,6.85
2023-02-12T03:51:44.798Z,7.22
2023-02-12T03:54:15.869Z,6.68
2023-02-12T03:57:07.648Z,6.77
2023-02-12T03:59:36.479Z,6.93
2023-02-12T04:02:03.267Z,7.43
2023-02-12T04:04:30.608Z,7.75
2023-02-12T04:06:57.687Z,7.35
2023-02-12T04:09:26.596Z,7.77
2023-02-12T04:12:11.853Z,7.55
2023-02-12T04:14:53.305Z,7.85
2023-02-12T04:17:36.576Z,8.27
2023-02-12T04:20:30.838Z,7.95
2023-02-12T04:23:29.847Z,7.00
2023-02-12T04:26:05.300Z,8.00
2023-02-12T04:28:46.921Z,8.38
2023-02-12T04:31:27.307Z,8.48
2023-02-12T04:34:05.115Z,8.82
2023-02-12T04:36:37.022Z,8.63
2023-02-12T04:39:11.850Z,8.65
2023-02-12T04:41:39.651Z,8.65
2023-02-12T04:44:37.845Z,8.25
2023-02-12T04:47:04.297Z,6.93
2023-02-12T04:49:30.824Z,6.23
2023-02-12T04:51:57.435Z,7.15
2023-02-12T04:54:24.638Z,6.78
2023-02-12T04:56:51.200Z,6.95
2023-02-12T04:59:17.959Z,8.30
2023-02-12T05:01:45.440Z,8.20
2023-02-12T05:04:14.618Z,7.32
2023-02-12T05:06:42.349Z,7.72
2023-02-12T05:09:13.160Z,7.72
2023-02-12T05:11:39.593Z,8.18
2023-02-12T05:14:06.196Z,8.17
2023-02-12T05:16:32.662Z,8.10
2023-02-12T05:18:59.084Z,8.23
2023-02-12T05:21:25.530Z,7.47
2023-02-12T05:23:52.032Z,7.63
2023-02-12T05:26:21.054Z,7.50
2023-02-12T05:28:47.965Z,7.47
2023-02-12T05:31:21.022Z,9.07
2023-02-12T05:33:48.911Z,9.60
2023-02-12T05:36:18.691Z,8.20
2023-02-12T05:38:45.323Z,8.10
2023-02-12T05:41:18.235Z,8.95
2023-02-12T05:43:47.722Z,9.50
2023-02-12T05:46:15.883Z,8.32
2023-02-12T05:48:42.379Z,8.65
2023-02-12T05:51:17.763Z,9.93
2023-02-12T05:53:44.185Z,9.20
2023-02-12T05:56:24.961Z,9.95
2023-02-12T05:59:00.407Z,9.23
2023-02-12T06:01:32.886Z,9.52
2023-02-12T06:04:02.275Z,8.73
2023-02-12T06:06:30.277Z,9.65
2023-02-12T06:08:58.590Z,10.45
2023-02-12T06:11:24.982Z,10.43
2023-02-12T06:13:51.660Z,10.00
2023-02-12T06:16:26.298Z,9.90
2023-02-12T06:18:54.231Z,10.90
2023-02-12T06:21:22.124Z,10.98
2023-02-12T06:23:49.901Z,10.77
2023-02-12T06:26:17.153Z,9.52
2023-02-12T06:28:44.231Z,10.47
2023-02-12T06:31:26.302Z,11.20
2023-02-12T06:33:54.205Z,10.68
2023-02-12T06:36:21.279Z,10.82
2023-02-12T06:38:48.549Z,10.93
2023-02-12T06:41:15.486Z,10.37
2023-02-12T06:43:42.392Z,10.80
2023-02-12T06:46:09.611Z,10.75
2023-02-12T06:48:36.596Z,10.88
2023-02-12T06:51:16.264Z,11.70
2023-02-12T06:53:43.117Z,10.93
2023-02-12T06:56:13.040Z,10.40
2023-02-12T06:58:42.690Z,10.90
2023-02-12T07:01:13.604Z,11.13
2023-02-12T07:03:52.772Z,12.55
2023-02-12T07:06:19.557Z,11.30
2023-02-12T07:08:46.312Z,11.38
2023-02-12T07:11:13.678Z,11.93
2023-02-12T07:13:41.599Z,11.57
2023-02-12T07:16:11.114Z,11.40
2023-02-12T07:18:39.033Z,11.27
2023-02-12T07:21:07.837Z,10.88
2023-02-12T07:23:35.038Z,10.38
2023-02-12T07:26:22.262Z,11.13
2023-02-12T07:28:49.400Z,10.93
2023-02-12T07:31:20.131Z,10.57
2023-02-12T07:33:47.444Z,9.85
2023-02-12T07:36:16.759Z,10.65
2023-02-12T07:38:43.839Z,11.02
2023-02-12T07:41:13.389Z,11.63
2023-02-12T07:43:41.650Z,10.50
2023-02-12T07:46:17.701Z,10.32
2023-02-12T07:48:45.231Z,10.73
2023-02-12T07:51:14.497Z,9.88
2023-02-12T07:53:41.796Z,10.30
2023-02-12T07:56:17.481Z,11.03
2023-02-12T07:58:45.856Z,10.32
2023-02-12T08:01:15.358Z,9.63
2023-02-12T08:03:42.350Z,10.82
2023-02-12T08:06:14.646Z,10.30
2023-02-12T08:08:41.148Z,9.60
2023-02-12T08:11:12.723Z,10.00
2023-02-12T08:13:39.998Z,9.30
2023-02-12T08:16:09.620Z,9.60
2023-02-12T08:18:36.250Z,8.82
2023-02-12T08:21:05.273Z,10.00
2023-02-12T08:23:32.596Z,9.48
2023-02-12T08:26:16.587Z,10.07
2023-02-12T08:28:45.896Z,9.25
2023-02-12T08:31:16.115Z,9.35
2023-02-12T08:33:44.913Z,9.27
2023-02-12T08:36:15.282Z,9.05
2023-02-12T08:38:43.024Z,9.43
2023-02-12T08:41:12.361Z,10.20
2023-02-12T08:43:40.223Z,8.63
2023-02-12T08:46:15.894Z,8.77
2023-02-12T08:48:43.342Z,8.77
2023-02-12T08:51:24.206Z,9.05
2023-02-12T08:53:56.385Z,9.75
2023-02-12T08:56:24.466Z,8.93
2023-02-12T08:58:51.352Z,10.63
2023-02-12T09:01:20.899Z,9.50
2023-02-12T09:03:47.791Z,9.02
2023-02-12T09:06:16.240Z,9.45
2023-02-12T09:08:44.736Z,8.50
2023-02-12T09:11:17.130Z,9.63
2023-02-12T09:13:45.412Z,8.50
2023-02-12T09:16:12.703Z,8.95
2023-02-12T09:18:39.326Z,9.55
2023-02-12T09:21:08.289Z,8.60
2023-02-12T09:23:34.766Z,8.23
2023-02-12T09:26:05.536Z,8.75
2023-02-12T09:28:32.499Z,8.88
2023-02-12T09:30:59.178Z,8.23
2023-02-12T09:33:25.704Z,8.57
2023-02-12T09:35:52.154Z,8.37
2023-02-12T09:38:18.579Z,8.25
2023-02-12T09:41:13.370Z,8.35
2023-02-12T09:43:44.672Z,8.35
2023-02-12T09:46:29.702Z,8.73
2023-02-12T09:49:33.375Z,8.03
2023-02-12T09:52:00.556Z,8.85
2023-02-12T09:54:37.171Z,8.55
2023-02-12T09:57:12.710Z,7.63
2023-02-12T09:59:44.988Z,8.60
2023-02-12T10:02:16.696Z,9.27
2023-02-12T10:04:59.815Z,8.57
2023-02-12T10:08:04.692Z,9.65
2023-02-12T10:10:51.478Z,10.00
2023-02-12T10:13:46.036Z,8.93
2023-02-12T10:16:38.257Z,9.67
2023-02-12T10:19:40.472Z,9.40
2023-02-12T10:22:31.874Z,9.60
2023-02-12T10:25:24.025Z,9.90
2023-02-12T10:27:54.079Z,9.85
2023-02-12T10:30:42.814Z,9.90
2023-02-12T10:33:21.039Z,10.10
2023-02-12T10:35:54.973Z,11.20
2023-02-12T10:38:26.324Z,11.43
2023-02-12T10:40:55.109Z,10.88
2023-02-12T10:43:21.503Z,10.87
2023-02-12T10:45:48.968Z,10.70
2023-02-12T10:48:22.304Z,10.73
2023-02-12T10:50:51.314Z,10.85
2023-02-12T10:53:35.807Z,10.52
2023-02-12T10:56:25.670Z,10.70
2023-02-12T10:59:01.480Z,10.50
2023-02-12T11:01:35.639Z,10.45
2023-02-12T11:04:27.384Z,10.68
2023-02-12T11:07:08.200Z,10.75
2023-02-12T11:09:46.432Z,11.03
2023-02-12T11:12:18.926Z,10.57
2023-02-12T11:14:57.733Z,11.48
2023-02-12T11:17:29.800Z,10.48
2023-02-12T11:20:10.112Z,10.25
2023-02-12T11:22:37.263Z,10.07
2023-02-12T11:25:18.639Z,10.68
2023-02-12T11:27:45.268Z,11.00
2023-02-12T11:30:19.515Z,10.52
2023-02-12T11:32:46.664Z,11.75
2023-02-12T11:35:25.027Z,10.67
2023-02-12T11:37:59.539Z,11.55
2023-02-12T11:40:29.339Z,10.85
2023-02-12T11:43:18.402Z,10.88
2023-02-12T11:45:50.504Z,10.00
2023-02-12T11:48:25.211Z,10.87
2023-02-12T11:50:56.370Z,10.93
2023-02-12T11:53:31.248Z,10.93
2023-02-12T11:56:04.553Z,10.68
2023-02-12T11:58:31.812Z,10.80
2023-02-12T12:01:08.633Z,10.77
2023-02-12T12:04:00.538Z,10.38
2023-02-12T12:06:41.525Z,10.30
2023-02-12T12:09:44.580Z,10.73
2023-02-12T12:12:21.555Z,10.95
2023-02-12T12:15:15.616Z,9.90
2023-02-12T12:18:07.346Z,9.57
2023-02-12T12:20:47.154Z,10.02
2023-02-12T12:23:20.817Z,9.73
2023-02-12T12:25:59.228Z,9.35
2023-02-12T12:28:47.748Z,8.50
2023-02-12T12:31:22.545Z,9.77
2023-02-12T12:34:15.101Z,9.00
2023-02-12T12:37:09.437Z,8.48
2023-02-12T12:40:20.891Z,8.50
2023-02-12T12:43:11.529Z,7.77
2023-02-12T12:46:02.205Z,8.23
2023-02-12T12:48:48.663Z,8.52
2023-02-12T12:51:46.593Z,7.80
2023-02-12T12:54:37.638Z,8.02
2023-02-12T12:57:32.529Z,8.57
2023-02-12T13:00:14.783Z,9.00
2023-02-12T13:03:06.687Z,8.05
2023-02-12T13:05:45.113Z,8.57
2023-02-12T13:08:49.969Z,8.70
2023-02-12T13:11:33.374Z,7.83
2023-02-12T13:14:14.682Z,8.93
2023-02-12T13:16:49.063Z,7.85
2023-02-12T13:19:38.439Z,7.82
2023-02-12T13:22:21.441Z,8.23
2023-02-12T13:25:12.143Z,8.47
2023-02-12T13:27:40.875Z,8.40
2023-02-12T13:30:20.312Z,8.48
2023-02-12T13:33:05.891Z,8.25
2023-02-12T13:35:34.930Z,7.80
2023-02-12T13:38:02.789Z,8.07
2023-02-12T13:40:30.737Z,7.93
2023-02-12T13:43:15.373Z,8.18
2023-02-12T13:45:52.836Z,7.88
2023-02-12T13:48:55.491Z,7.55
2023-02-12T13:51:31.159Z,7.10
2023-02-12T13:54:25.774Z,7.97
2023-02-12T13:56:55.421Z,7.70
2023-02-12T13:59:55.585Z,7.60
2023-02-12T14:02:34.304Z,8.40
2023-02-12T14:05:04.544Z,7.43
2023-02-12T14:07:44.329Z,7.88
2023-02-12T14:10:25.172Z,7.18
2023-02-12T14:12:53.531Z,7.20
2023-02-12T14:15:38.942Z,7.88
2023-02-12T14:18:14.998Z,7.10
2023-02-12T14:20:41.425Z,7.63
2023-02-12T14:23:28.565Z,8.00
2023-02-12T14:26:19.095Z,6.80
2023-02-12T14:28:57.648Z,7.07
2023-02-12T14:31:27.151Z,7.50
2023-02-12T14:34:16.593Z,6.57
2023-02-12T14:36:48.987Z,6.97
2023-02-12T14:39:24.365Z,6.88
2023-02-12T14:41:57.204Z,7.03
2023-02-12T14:44:23.624Z,7.30
2023-02-12T14:46:57.937Z,7.13
2023-02-12T14:49:36.772Z,6.93
2023-02-12T14:52:14.424Z,6.80
2023-02-12T14:54:54.505Z,6.80
2023-02-12T14:57:30.883Z,5.77
2023-02-12T15:00:17.522Z,6.10
2023-02-12T15:03:05.314Z,6.15
2023-02-12T15:05:38.224Z,5.55
2023-02-12T15:08:32.774Z,6.07
2023-02-12T15:11:11.419Z,6.33
2023-02-12T15:13:49.555Z,6.07
2023-02-12T15:16:22.162Z,6.53
2023-02-12T15:19:01.690Z,6.60
2023-02-12T15:21:31.569Z,6.75
2023-02-12T15:24:08.670Z,6.30
2023-02-12T15:26:44.982Z,6.43
2023-02-12T15:29:45.963Z,6.00
2023-02-12T15:32:28.453Z,5.78
2023-02-12T15:34:56.642Z,6.35
2023-02-12T15:37:27.364Z,6.03
2023-02-12T15:40:01.602Z,5.88
2023-02-12T15:42:32.075Z,6.63
2023-02-12T15:45:10.316Z,6.90
2023-02-12T15:47:36.749Z,6.28
2023-02-12T15:50:03.466Z,6.30
2023-02-12T15:52:39.429Z,6.65
2023-02-12T15:55:14.082Z,6.50
2023-02-12T15:57:40.884Z,6.75
2023-02-12T16:00:11.206Z,6.65
2023-02-12T16:02:37.627Z,5.70
2023-02-12T16:05:05.750Z,6.13
2023-02-12T16:07:36.127Z,6.70
2023-02-12T16:10:03.477Z,6.75
2023-02-12T16:12:33.957Z,6.80
2023-02-12T16:15:00.960Z,6.27
2023-02-12T16:17:34.559Z,6.60
2023-02-12T16:20:04.408Z,6.45
2023-02-12T16:22:38.170Z,6.75
2023-02-12T16:25:13.638Z,7.00
2023-02-12T16:27:40.547Z,5.80
2023-02-12T16:30:25.717Z,6.65
2023-02-12T16:32:52.824Z,6.68
2023-02-12T16:35:25.984Z,6.63
2023-02-12T16:37:58.458Z,7.28
2023-02-12T16:40:29.887Z,6.80
2023-02-12T16:43:03.927Z,5.93
2023-02-12T16:45:36.402Z,6.35
2023-02-12T16:48:06.737Z,6.80
2023-02-12T16:50:39.481Z,7.10
2023-02-12T16:53:22.503Z,6.40
2023-02-12T16:55:49.523Z,6.20
2023-02-12T16:58:15.932Z,7.45
2023-02-12T17:00:42.678Z,7.20
2023-02-12T17:03:13.961Z,7.30
2023-02-12T17:05:42.657Z,6.80
2023-02-12T17:08:21.506Z,7.18
2023-02-12T17:10:50.937Z,7.90
2023-02-12T17:13:19.164Z,6.97
2023-02-12T17:15:50.691Z,7.43
2023-02-12T17:18:18.245Z,6.47
2023-02-12T17:20:49.195Z,7.30
2023-02-12T17:23:15.651Z,7.47
2023-02-12T17:25:42.035Z,7.05
2023-02-12T17:28:09.000Z,6.88
2023-02-12T17:30:37.322Z,8.10
2023-02-12T17:33:04.320Z,7.55
2023-02-12T17:35:31.161Z,7.60
2023-02-12T17:37:57.628Z,9.05
2023-02-12T17:40:24.298Z,7.55
2023-02-12T17:42:50.822Z,7.30
2023-02-12T17:45:17.487Z,8.23
2023-02-12T17:47:43.895Z,7.85
2023-02-12T17:50:12.492Z,8.38
2023-02-12T17:52:39.096Z,8.30
2023-02-12T17:55:06.612Z,8.10
2023-02-12T17:57:33.456Z,8.15
2023-02-12T17:59:59.987Z,8.10
2023-02-12T18:02:26.535Z,9.00
2023-02-12T18:04:52.909Z,9.00
2023-02-12T18:07:19.489Z,8.90
2023-02-12T18:09:45.921Z,8.40
2023-02-12T18:12:12.438Z,8.77
2023-02-12T18:14:39.034Z,8.57
2023-02-12T18:17:05.607Z,8.40
2023-02-12T18:19:32.168Z,8.20
2023-02-12T18:21:58.589Z,10.02
2023-02-12T18:24:25.002Z,9.15
2023-02-12T18:26:51.772Z,9.85
2023-02-12T18:29:21.213Z,9.60
2023-02-12T18:31:47.690Z,8.83
2023-02-12T18:34:14.248Z,10.13
2023-02-12T18:36:40.650Z,9.43
2023-02-12T18:39:07.045Z,10.10
2023-02-12T18:41:35.732Z,9.52
2023-02-12T18:44:02.270Z,9.60
2023-02-12T18:46:30.872Z,9.00
2023-02-12T18:48:57.736Z,9.95
2023-02-12T18:51:27.264Z,9.73
2023-02-12T18:53:56.219Z,10.27
2023-02-12T18:56:23.144Z,9.63
2023-02-12T18:58:55.015Z,9.32
2023-02-12T19:01:21.504Z,10.32
2023-02-12T19:03:50.856Z,10.55
2023-02-12T19:06:17.290Z,10.48
2023-02-12T19:08:43.744Z,10.53
2023-02-12T19:11:11.499Z,10.30
2023-02-12T19:13:38.194Z,10.18
2023-02-12T19:16:10.478Z,9.90
2023-02-12T19:18:37.036Z,9.23
2023-02-12T19:21:13.079Z,9.93
2023-02-12T19:23:40.593Z,9.60
2023-02-12T19:26:10.601Z,10.32
2023-02-12T19:28:40.448Z,10.00
2023-02-12T19:31:22.320Z,11.27
2023-02-12T19:33:50.317Z,9.63
2023-02-12T19:36:19.148Z,10.60
2023-02-12T19:38:48.190Z,11.57
2023-02-12T19:41:18.300Z,10.23
2023-02-12T19:43:45.274Z,11.10
2023-02-12T19:46:16.745Z,10.50
2023-02-12T19:48:45.243Z,12.10
2023-02-12T19:51:20.745Z,12.60
2023-02-12T19:53:47.893Z,10.93
2023-02-12T19:56:15.297Z,11.15
2023-02-12T19:58:42.145Z,12.37
2023-02-12T20:01:10.564Z,17.85
2023-02-12T20:03:38.012Z,14.40
2023-02-12T20:06:12.501Z,14.48
2023-02-12T20:08:40.672Z,14.25
2023-02-12T20:11:09.465Z,13.90
2023-02-12T20:13:36.181Z,16.23
2023-02-12T20:16:08.473Z,13.45
2023-02-12T20:18:34.998Z,14.32
2023-02-12T20:21:07.470Z,13.70
2023-02-12T20:23:33.841Z,14.70
2023-02-12T20:26:00.218Z,15.13
2023-02-12T20:28:26.826Z,15.80
2023-02-12T20:30:53.377Z,15.05
2023-02-12T20:33:19.938Z,14.88
2023-02-12T20:35:46.320Z,15.13
2023-02-12T20:38:12.719Z,15.73
2023-02-12T20:40:39.138Z,15.38
2023-02-12T20:43:05.562Z,15.32
2023-02-12T20:45:32.069Z,15.23
2023-02-12T20:47:58.482Z,16.27
2023-02-12T20:50:24.884Z,16.13
2023-02-12T20:52:51.458Z,14.50
2023-02-12T20:55:17.910Z,13.93
2023-02-12T20:57:44.329Z,16.15
2023-02-12T21:00:11.449Z,16.63
2023-02-12T21:02:37.879Z,16.25
2023-02-12T21:05:04.612Z,16.77
2023-02-12T21:07:30.958Z,15.60
2023-02-12T21:09:57.334Z,15.30
2023-02-12T21:12:23.900Z,13.97
2023-02-12T21:14:50.304Z,14.75
2023-02-12T21:17:16.703Z,13.63
2023-02-12T21:19:43.096Z,12.57
2023-02-12T21:22:09.470Z,12.27
2023-02-12T21:24:35.904Z,12.77
2023-02-12T21:27:02.361Z,12.40
2023-02-12T21:29:32.992Z,11.82
2023-02-12T21:32:01.102Z,12.20
2023-02-12T21:34:27.597Z,13.07
2023-02-12T21:37:03.571Z,11.93
2023-02-12T21:39:30.033Z,11.43
2023-02-12T21:42:02.792Z,12.68
2023-02-12T21:44:31.159Z,12.43
2023-02-12T21:46:58.550Z,11.98
2023-02-12T21:49:25.119Z,11.53
2023-02-12T21:51:53.648Z,12.85
2023-02-12T21:54:20.317Z,11.35
2023-02-12T21:56:48.708Z,11.90
2023-02-12T21:59:16.490Z,12.60
2023-02-12T22:01:49.124Z,13.00
2023-02-12T22:04:16.673Z,11.60
2023-02-12T22:06:48.400Z,11.05
2023-02-12T22:09:18.036Z,12.35
2023-02-12T22:11:44.524Z,12.07
2023-02-12T22:14:16.398Z,11.47
2023-02-12T22:16:43.765Z,12.13
2023-02-12T22:19:10.507Z,12.30
2023-02-12T22:21:39.484Z,11.40
2023-02-12T22:24:08.228Z,11.52
2023-02-12T22:26:35.685Z,12.33
2023-02-12T22:29:07.630Z,11.07
2023-02-12T22:31:36.655Z,11.15
2023-02-12T22:34:08.288Z,11.75
2023-02-12T22:36:36.474Z,12.90
2023-02-12T22:39:03.507Z,11.20
2023-02-12T22:41:30.455Z,12.25
2023-02-12T22:44:00.000Z,12.43
2023-02-12T22:46:26.965Z,12.30
2023-02-12T22:48:53.529Z,11.77
2023-02-12T22:51:24.309Z,12.27
2023-02-12T22:53:50.714Z,12.15
2023-02-12T22:56:17.779Z,11.55
2023-02-12T22:58:44.484Z,12.07
2023-02-12T23:01:14.716Z,10.63
2023-02-12T23:03:42.523Z,10.37
2023-02-12T23:06:12.721Z,11.15
2023-02-12T23:08:39.340Z,11.05
2023-02-12T23:11:08.367Z,11.15
2023-02-12T23:13:36.138Z,11.25
2023-02-12T23:16:03.221Z,10.47
2023-02-12T23:18:29.612Z,12.13
2023-02-12T23:20:56.283Z,10.82
2023-02-12T23:23:22.894Z,11.20
2023-02-12T23:25:49.793Z,10.18
2023-02-12T23:28:17.048Z,10.27
2023-02-12T23:30:43.566Z,10.70
2023-02-12T23:33:10.365Z,10.30
2023-02-12T23:35:36.800Z,11.07
2023-02-12T23:38:04.354Z,9.80
2023-02-12T23:40:31.844Z,10.93
2023-02-12T23:42:58.570Z,11.45
2023-02-12T23:45:25.064Z,9.77
2023-02-12T23:47:51.682Z,9.77
2023-02-12T23:50:18.142Z,9.85
2023-02-12T23:52:44.785Z,10.30
2023-02-12T23:55:11.302Z,8.95
2023-02-12T23:57:37.698Z,10.05
